createdAt,value
2019-05-25T00:01:55.482Z,17.55
2019-05-25T00:04:27.178Z,17.31
2019-05-25T00:06:56.455Z,17.52
2019-05-25T00:09:29.037Z,17.07
2019-05-25T00:12:01.195Z,16.75
2019-05-25T00:14:30.372Z,16.22
2019-05-25T00:16:59.512Z,16.02
2019-05-25T00:19:42.399Z,16.14
2019-05-25T00:22:11.610Z,16.35
2019-05-25T00:24:42.967Z,8.81
2019-05-25T00:27:15.761Z,17.45
2019-05-25T00:29:47.088Z,17.74
2019-05-25T00:32:15.766Z,16.85
2019-05-25T00:34:44.946Z,16.09
2019-05-25T00:37:15.290Z,15.88
2019-05-25T00:39:44.432Z,15.63
2019-05-25T00:42:13.572Z,15.74
2019-05-25T00:44:45.815Z,15.53
2019-05-25T00:47:17.947Z,15.74
2019-05-25T00:49:53.162Z,15.71
2019-05-25T00:52:25.367Z,15.75
2019-05-25T00:54:54.792Z,15.53
2019-05-25T00:57:24.013Z,15.49
2019-05-25T00:59:53.268Z,15.67
2019-05-25T01:02:22.577Z,15.46
2019-05-25T01:04:53.032Z,16.01
2019-05-25T01:07:28.133Z,16.02
2019-05-25T01:09:57.819Z,16.05
2019-05-25T01:12:31.479Z,16.13
2019-05-25T01:15:01.689Z,16.08
2019-05-25T01:17:34.017Z,15.87
2019-05-25T01:20:04.338Z,15.70
2019-05-25T01:22:39.753Z,15.68
2019-05-25T01:25:09.275Z,15.70
2019-05-25T01:27:38.609Z,15.67
2019-05-25T01:30:08.504Z,15.75
2019-05-25T01:32:37.631Z,15.87
2019-05-25T01:35:07.412Z,15.93
2019-05-25T01:37:36.977Z,16.30
2019-05-25T01:40:09.894Z,17.09
2019-05-25T01:42:43.183Z,17.29
2019-05-25T01:45:15.637Z,17.39
2019-05-25T01:47:44.786Z,16.53
2019-05-25T01:50:15.117Z,16.30
2019-05-25T01:52:44.530Z,16.04
2019-05-25T01:55:13.975Z,15.76
2019-05-25T01:57:44.872Z,15.73
2019-05-25T02:00:14.569Z,15.57
2019-05-25T02:02:44.142Z,15.40
2019-05-25T02:05:13.355Z,15.51
2019-05-25T02:07:44.157Z,16.03
2019-05-25T02:10:14.247Z,15.76
2019-05-25T02:12:43.372Z,15.40
2019-05-25T02:15:12.942Z,15.82
2019-05-25T02:17:44.193Z,16.30
2019-05-25T02:20:16.994Z,16.39
2019-05-25T02:22:46.646Z,16.18
2019-05-25T02:25:21.525Z,15.97
2019-05-25T02:27:51.023Z,16.24
2019-05-25T02:30:22.254Z,16.46
2019-05-25T02:32:54.371Z,16.49
2019-05-25T02:35:30.302Z,16.48
2019-05-25T02:38:01.445Z,16.87
2019-05-25T02:40:33.250Z,16.80
2019-05-25T02:43:04.040Z,16.58
2019-05-25T02:45:33.191Z,17.00
2019-05-25T02:48:02.437Z,16.73
2019-05-25T02:50:31.545Z,16.84
2019-05-25T02:53:02.160Z,16.91
2019-05-25T02:55:37.662Z,16.67
2019-05-25T02:58:06.839Z,16.46
2019-05-25T03:00:36.254Z,16.15
2019-05-25T03:03:07.094Z,15.82
2019-05-25T03:05:38.060Z,15.84
2019-05-25T03:08:14.330Z,16.05
2019-05-25T03:10:44.270Z,15.73
2019-05-25T03:13:13.841Z,16.51
2019-05-25T03:15:42.982Z,17.03
2019-05-25T03:18:13.401Z,17.35
2019-05-25T03:20:42.519Z,17.52
2019-05-25T03:23:13.546Z,17.35
2019-05-25T03:25:49.576Z,17.47
2019-05-25T03:28:14.760Z,17.60
2019-05-25T03:30:46.273Z,17.68
2019-05-25T03:33:15.724Z,17.58
2019-05-25T03:35:44.953Z,17.51
2019-05-25T03:38:16.937Z,16.69
2019-05-25T03:40:48.551Z,15.80
2019-05-25T03:43:17.680Z,15.71
2019-05-25T03:45:46.865Z,15.35
2019-05-25T03:48:15.986Z,15.05
2019-05-25T03:50:45.055Z,15.08
2019-05-25T03:53:14.309Z,14.96
2019-05-25T03:55:46.199Z,14.88
2019-05-25T03:58:18.638Z,15.03
2019-05-25T04:00:50.746Z,14.81
2019-05-25T04:03:20.989Z,14.83
2019-05-25T04:05:51.387Z,15.07
2019-05-25T04:08:20.713Z,15.00
2019-05-25T04:10:53.034Z,14.80
2019-05-25T04:13:25.304Z,14.77
2019-05-25T04:15:54.595Z,14.57
2019-05-25T04:18:23.779Z,12.34
2019-05-25T04:20:54.010Z,14.99
2019-05-25T04:23:24.898Z,15.04
2019-05-25T04:25:58.617Z,15.53
2019-05-25T04:28:30.148Z,15.43
2019-05-25T04:30:59.316Z,15.48
2019-05-25T04:33:28.683Z,15.65
2019-05-25T04:36:00.918Z,15.76
2019-05-25T04:38:30.531Z,16.60
2019-05-25T04:41:02.069Z,16.55
2019-05-25T04:43:32.682Z,16.93
2019-05-25T04:46:04.491Z,16.66
2019-05-25T04:48:35.274Z,17.14
2019-05-25T04:51:04.405Z,17.21
2019-05-25T04:53:34.806Z,17.22
2019-05-25T04:56:08.788Z,16.63
2019-05-25T04:58:39.223Z,16.16
2019-05-25T05:01:22.446Z,16.58
2019-05-25T05:03:48.616Z,16.79
2019-05-25T05:06:17.733Z,16.27
2019-05-25T05:08:48.279Z,16.60
2019-05-25T05:11:20.720Z,15.88
2019-05-25T05:13:50.262Z,16.71
2019-05-25T05:16:22.945Z,16.70
2019-05-25T05:18:52.081Z,16.94
2019-05-25T05:21:21.186Z,17.15
2019-05-25T05:23:52.323Z,17.44
2019-05-25T05:26:21.889Z,17.41
2019-05-25T05:28:58.627Z,17.29
2019-05-25T05:31:31.307Z,17.32
2019-05-25T05:34:03.756Z,17.99
2019-05-25T05:36:33.903Z,18.02
2019-05-25T05:39:08.871Z,18.03
2019-05-25T05:41:39.915Z,18.04
2019-05-25T05:44:09.943Z,18.27
2019-05-25T05:46:43.675Z,18.04
2019-05-25T05:49:20.260Z,18.02
2019-05-25T05:51:51.340Z,18.32
2019-05-25T05:54:23.258Z,18.87
2019-05-25T05:56:52.410Z,19.07
2019-05-25T05:59:26.006Z,19.15
2019-05-25T06:01:55.131Z,19.26
2019-05-25T06:04:24.373Z,19.56
2019-05-25T06:06:54.968Z,20.07
2019-05-25T06:09:24.262Z,20.29
2019-05-25T06:11:55.207Z,20.66
2019-05-25T06:14:24.366Z,20.81
2019-05-25T06:16:54.699Z,21.04
2019-05-25T06:19:26.447Z,21.20
2019-05-25T06:21:57.221Z,21.36
2019-05-25T06:24:28.021Z,21.19
2019-05-25T06:26:57.138Z,21.27
2019-05-25T06:29:28.083Z,21.42
2019-05-25T06:31:59.486Z,21.63
2019-05-25T06:34:31.660Z,21.65
2019-05-25T06:37:00.994Z,21.84
2019-05-25T06:39:31.808Z,21.36
2019-05-25T06:42:01.035Z,22.01
2019-05-25T06:44:30.195Z,21.96
2019-05-25T06:46:59.424Z,22.01
2019-05-25T06:49:33.508Z,21.90
2019-05-25T06:52:04.361Z,21.44
2019-05-25T06:54:33.546Z,21.94
2019-05-25T06:57:02.935Z,22.04
2019-05-25T06:59:35.354Z,21.96
2019-05-25T07:02:04.820Z,21.76
2019-05-25T07:04:38.343Z,21.38
2019-05-25T07:07:12.950Z,21.28
2019-05-25T07:09:44.773Z,21.38
2019-05-25T07:12:13.866Z,21.58
2019-05-25T07:14:44.223Z,21.83
2019-05-25T07:17:17.911Z,21.70
2019-05-25T07:19:48.808Z,21.84
2019-05-25T07:22:23.515Z,21.60
2019-05-25T07:24:55.079Z,21.24
2019-05-25T07:27:29.085Z,21.24
2019-05-25T07:30:01.324Z,21.10
2019-05-25T07:32:30.482Z,19.75
2019-05-25T07:35:00.199Z,21.15
2019-05-25T07:37:32.185Z,21.44
2019-05-25T07:40:08.945Z,21.58
2019-05-25T07:42:43.542Z,21.69
2019-05-25T07:45:17.883Z,21.51
2019-05-25T07:47:47.051Z,21.77
2019-05-25T07:50:17.117Z,21.73
2019-05-25T07:52:46.866Z,21.91
2019-05-25T07:55:19.831Z,22.03
2019-05-25T07:57:48.964Z,22.09
2019-05-25T08:00:18.467Z,22.62
2019-05-25T08:02:47.732Z,22.08
2019-05-25T08:05:17.181Z,21.62
2019-05-25T08:07:51.010Z,22.06
2019-05-25T08:10:21.851Z,22.08
2019-05-25T08:12:51.750Z,22.60
2019-05-25T08:15:21.364Z,22.25
2019-05-25T08:17:52.827Z,22.10
2019-05-25T08:20:23.928Z,21.79
2019-05-25T08:22:54.622Z,21.49
2019-05-25T08:25:27.381Z,21.50
2019-05-25T08:27:56.741Z,21.37
2019-05-25T08:30:26.196Z,21.30
2019-05-25T08:32:57.877Z,21.39
2019-05-25T08:35:29.357Z,21.60
2019-05-25T08:37:59.289Z,21.78
2019-05-25T08:40:29.076Z,21.49
2019-05-25T08:42:58.140Z,21.26
2019-05-25T08:45:29.499Z,21.14
2019-05-25T08:47:59.182Z,21.04
2019-05-25T08:50:38.452Z,20.93
2019-05-25T08:52:59.490Z,20.77
2019-05-25T08:55:28.903Z,20.76
2019-05-25T08:57:58.145Z,20.80
2019-05-25T09:00:30.478Z,21.12
2019-05-25T09:02:59.894Z,20.89
2019-05-25T09:05:36.358Z,21.01
2019-05-25T09:08:05.839Z,21.38
2019-05-25T09:10:35.233Z,21.40
2019-05-25T09:13:05.229Z,21.90
2019-05-25T09:15:34.379Z,21.46
2019-05-25T09:18:04.865Z,21.74
2019-05-25T09:20:34.025Z,21.58
2019-05-25T09:23:03.181Z,21.81
2019-05-25T09:25:34.528Z,21.35
2019-05-25T09:28:03.708Z,21.63
2019-05-25T09:30:34.025Z,21.73
2019-05-25T09:33:06.123Z,21.52
2019-05-25T09:35:38.561Z,21.21
2019-05-25T09:38:12.346Z,21.45
2019-05-25T09:40:42.236Z,21.59
2019-05-25T09:43:15.843Z,21.51
2019-05-25T09:45:46.561Z,21.54
2019-05-25T09:48:16.866Z,21.56
2019-05-25T09:50:47.236Z,21.77
2019-05-25T09:53:18.142Z,21.42
2019-05-25T09:55:48.668Z,21.73
2019-05-25T09:58:24.360Z,21.76
2019-05-25T10:00:53.513Z,21.69
2019-05-25T10:03:25.134Z,21.72
2019-05-25T10:05:58.206Z,22.21
2019-05-25T10:08:29.185Z,22.14
2019-05-25T10:10:59.468Z,22.14
2019-05-25T10:13:31.336Z,22.38
2019-05-25T10:16:00.981Z,21.88
2019-05-25T10:18:30.175Z,21.25
2019-05-25T10:21:02.644Z,21.31
2019-05-25T10:23:32.022Z,21.20
2019-05-25T10:26:07.201Z,21.47
2019-05-25T10:28:38.417Z,21.61
2019-05-25T10:31:07.636Z,21.89
2019-05-25T10:33:36.800Z,21.10
2019-05-25T10:36:06.146Z,20.28
2019-05-25T10:38:36.126Z,19.99
2019-05-25T10:41:09.315Z,20.44
2019-05-25T10:43:43.661Z,20.56
2019-05-25T10:46:13.168Z,19.89
2019-05-25T10:48:47.365Z,19.48
2019-05-25T10:51:18.151Z,18.87
2019-05-25T10:53:47.261Z,18.71
2019-05-25T10:56:16.642Z,18.83
2019-05-25T10:58:46.192Z,18.46
2019-05-25T11:01:22.087Z,19.09
2019-05-25T11:03:54.462Z,19.05
2019-05-25T11:06:23.829Z,19.33
2019-05-25T11:08:52.910Z,18.86
2019-05-25T11:11:24.283Z,19.01
2019-05-25T11:13:57.763Z,19.14
2019-05-25T11:16:28.883Z,19.10
2019-05-25T11:18:58.290Z,19.08
2019-05-25T11:21:34.727Z,19.15
2019-05-25T11:24:06.925Z,19.16
2019-05-25T11:26:39.128Z,18.93
2019-05-25T11:29:08.257Z,19.36
2019-05-25T11:31:37.438Z,19.24
2019-05-25T11:34:13.668Z,19.38
2019-05-25T11:36:44.870Z,19.63
2019-05-25T11:39:16.184Z,19.49
2019-05-25T11:41:50.472Z,19.37
2019-05-25T11:44:21.124Z,20.08
2019-05-25T11:46:52.081Z,20.45
2019-05-25T11:49:29.620Z,20.86
2019-05-25T11:52:05.027Z,22.21
2019-05-25T11:54:33.889Z,21.35
2019-05-25T11:57:04.606Z,21.10
2019-05-25T11:59:44.586Z,21.29
2019-05-25T12:02:15.106Z,22.43
2019-05-25T12:07:24.652Z,23.35
2019-05-25T12:09:55.441Z,22.66
2019-05-25T12:12:25.691Z,22.74
2019-05-25T12:14:54.939Z,22.94
2019-05-25T12:17:26.179Z,22.13
2019-05-25T12:19:58.350Z,23.06
2019-05-25T12:22:27.578Z,23.74
2019-05-25T12:24:56.787Z,23.53
2019-05-25T12:27:27.073Z,23.73
2019-05-25T12:29:56.221Z,24.56
2019-05-25T12:32:28.081Z,23.72
2019-05-25T12:34:57.225Z,24.30
2019-05-25T12:37:27.869Z,24.30
2019-05-25T12:39:56.996Z,24.55
2019-05-25T12:42:27.298Z,24.27
2019-05-25T12:45:00.293Z,23.63
2019-05-25T12:47:30.933Z,24.56
2019-05-25T12:50:00.589Z,24.56
2019-05-25T12:52:31.641Z,23.95
2019-05-25T12:55:00.860Z,23.58
2019-05-25T12:57:33.786Z,23.92
2019-05-25T13:00:15.666Z,24.43
2019-05-25T13:02:41.277Z,24.28
2019-05-25T13:05:16.086Z,23.97
2019-05-25T13:07:47.623Z,23.39
2019-05-25T13:10:17.254Z,23.19
2019-05-25T13:12:49.489Z,22.91
2019-05-25T13:15:19.778Z,23.69
2019-05-25T13:17:48.971Z,23.93
2019-05-25T13:20:20.006Z,23.99
2019-05-25T13:22:50.671Z,24.03
2019-05-25T13:25:19.885Z,23.58
2019-05-25T13:27:52.258Z,23.99
2019-05-25T13:30:24.693Z,23.99
2019-05-25T13:32:55.593Z,23.75
2019-05-25T13:35:26.471Z,23.70
2019-05-25T13:37:55.996Z,23.26
2019-05-25T13:40:25.494Z,23.65
2019-05-25T13:42:54.764Z,24.35
2019-05-25T13:45:25.104Z,24.19
2019-05-25T13:47:56.821Z,24.13
2019-05-25T13:50:28.458Z,23.76
2019-05-25T13:53:00.547Z,22.50
2019-05-25T13:55:32.911Z,22.68
2019-05-25T13:58:03.877Z,22.48
2019-05-25T14:00:32.997Z,22.38
2019-05-25T14:03:03.485Z,20.88
2019-05-25T14:05:34.143Z,19.58
2019-05-25T14:08:03.406Z,18.55
2019-05-25T14:10:33.764Z,18.36
2019-05-25T14:13:12.306Z,18.23
2019-05-25T14:15:43.638Z,17.79
2019-05-25T14:18:14.394Z,17.22
2019-05-25T14:20:43.789Z,17.12
2019-05-25T14:23:14.284Z,16.76
2019-05-25T14:25:43.523Z,16.78
2019-05-25T14:28:12.842Z,16.17
2019-05-25T14:30:43.898Z,16.42
2019-05-25T14:33:14.683Z,16.18
2019-05-25T14:35:48.786Z,16.13
2019-05-25T14:38:17.929Z,16.25
2019-05-25T14:40:47.041Z,16.21
2019-05-25T14:43:16.172Z,16.33
2019-05-25T14:45:48.172Z,16.34
2019-05-25T14:48:19.230Z,16.63
2019-05-25T14:50:48.491Z,17.00
2019-05-25T14:53:17.647Z,17.78
2019-05-25T14:55:51.296Z,18.03
2019-05-25T14:58:21.648Z,18.24
2019-05-25T15:00:52.557Z,18.33
2019-05-25T15:03:21.908Z,18.30
2019-05-25T15:05:51.148Z,16.95
2019-05-25T15:08:22.449Z,15.93
2019-05-25T15:10:56.022Z,16.46
2019-05-25T15:13:25.587Z,16.64
2019-05-25T15:15:59.991Z,17.13
2019-05-25T15:18:30.655Z,18.06
2019-05-25T15:21:02.591Z,18.34
2019-05-25T15:23:31.835Z,18.56
2019-05-25T15:26:04.181Z,18.63
2019-05-25T15:28:34.195Z,18.88
2019-05-25T15:31:04.644Z,18.86
2019-05-25T15:33:38.218Z,18.44
2019-05-25T15:36:07.375Z,18.41
2019-05-25T15:38:36.498Z,17.84
2019-05-25T15:41:05.685Z,17.95
2019-05-25T15:43:37.633Z,18.15
2019-05-25T15:46:06.686Z,17.48
2019-05-25T15:48:36.899Z,17.56
2019-05-25T15:51:06.260Z,17.45
2019-05-25T15:53:35.335Z,17.63
2019-05-25T15:56:06.225Z,17.61
2019-05-25T15:58:38.699Z,17.73
2019-05-25T16:01:08.010Z,17.72
2019-05-25T16:03:37.136Z,17.51
2019-05-25T16:06:06.393Z,17.24
2019-05-25T16:08:37.405Z,17.07
2019-05-25T16:11:06.782Z,16.81
2019-05-25T16:13:36.097Z,16.72
2019-05-25T16:16:05.450Z,16.50
2019-05-25T16:18:36.418Z,16.33
2019-05-25T16:21:05.691Z,16.40
2019-05-25T16:23:37.445Z,16.47
2019-05-25T16:26:06.698Z,16.22
2019-05-25T16:28:38.641Z,16.08
2019-05-25T16:31:08.659Z,16.05
2019-05-25T16:33:38.061Z,16.03
2019-05-25T16:36:09.404Z,15.89
2019-05-25T16:38:44.213Z,16.39
2019-05-25T16:41:14.637Z,16.34
2019-05-25T16:43:46.908Z,16.01
2019-05-25T16:46:16.194Z,16.33
2019-05-25T16:48:45.392Z,15.98
2019-05-25T16:51:14.541Z,16.24
2019-05-25T16:53:43.734Z,16.19
2019-05-25T16:56:13.135Z,16.09
2019-05-25T16:58:47.660Z,16.29
2019-05-25T17:01:18.162Z,16.41
2019-05-25T17:03:48.597Z,16.35
2019-05-25T17:06:19.141Z,16.40
2019-05-25T17:08:49.452Z,16.50
2019-05-25T17:11:18.871Z,16.51
2019-05-25T17:13:48.064Z,16.36
2019-05-25T17:16:17.222Z,16.85
2019-05-25T17:18:47.934Z,16.76
2019-05-25T17:21:17.164Z,16.76
2019-05-25T17:23:47.403Z,16.84
2019-05-25T17:26:17.103Z,17.14
2019-05-25T17:28:46.240Z,17.22
2019-05-25T17:31:17.221Z,17.15
2019-05-25T17:33:48.371Z,17.49
2019-05-25T17:36:18.715Z,17.31
2019-05-25T17:38:49.165Z,17.29
2019-05-25T17:41:22.912Z,17.09
2019-05-25T17:43:53.560Z,17.74
2019-05-25T17:46:24.031Z,17.35
2019-05-25T17:48:53.341Z,17.48
2019-05-25T17:51:22.834Z,17.65
2019-05-25T17:53:51.990Z,18.14
2019-05-25T17:56:21.180Z,17.89
2019-05-25T17:58:51.536Z,17.53
2019-05-25T18:01:22.392Z,17.30
2019-05-25T18:04:05.666Z,17.30
2019-05-25T18:06:22.400Z,17.01
2019-05-25T18:08:51.644Z,17.21
2019-05-25T18:11:20.992Z,17.01
2019-05-25T18:14:11.203Z,16.89
2019-05-25T18:16:40.404Z,16.87
2019-05-25T18:19:09.976Z,16.96
2019-05-25T18:21:39.291Z,16.73
2019-05-25T18:24:13.867Z,16.49
2019-05-25T18:26:45.295Z,16.68
2019-05-25T18:29:14.436Z,16.15
2019-05-25T18:31:48.227Z,16.16
2019-05-25T18:34:22.137Z,16.28
2019-05-25T18:36:50.644Z,16.09
2019-05-25T18:39:23.124Z,16.27
2019-05-25T18:41:53.278Z,16.17
2019-05-25T18:44:22.820Z,15.80
2019-05-25T18:46:58.778Z,15.93
2019-05-25T18:49:29.423Z,15.74
2019-05-25T18:52:00.671Z,15.87
2019-05-25T18:54:30.524Z,15.96
2019-05-25T18:57:04.499Z,16.13
2019-05-25T18:59:31.439Z,15.85
2019-05-25T19:02:02.397Z,15.60
2019-05-25T19:04:45.017Z,15.71
2019-05-25T19:07:02.519Z,13.63
2019-05-25T19:09:31.754Z,15.84
2019-05-25T19:12:05.149Z,15.71
2019-05-25T19:14:34.571Z,15.64
2019-05-25T19:17:03.911Z,15.78
2019-05-25T19:19:33.170Z,15.63
2019-05-25T19:22:02.373Z,15.39
2019-05-25T19:24:32.601Z,15.29
2019-05-25T19:27:08.042Z,15.07
2019-05-25T19:29:38.538Z,15.06
2019-05-25T19:32:08.004Z,14.90
2019-05-25T19:34:56.574Z,14.86
2019-05-25T19:37:12.740Z,14.71
2019-05-25T19:40:08.744Z,14.79
2019-05-25T19:42:37.430Z,14.75
2019-05-25T19:45:10.083Z,14.68
2019-05-25T19:47:39.645Z,14.93
2019-05-25T19:50:12.622Z,14.76
2019-05-25T19:52:41.780Z,14.66
2019-05-25T19:55:11.785Z,14.62
2019-05-25T19:57:44.887Z,14.82
2019-05-25T20:00:15.642Z,14.76
2019-05-25T20:02:43.053Z,14.67
2019-05-25T20:05:16.968Z,14.62
2019-05-25T20:07:45.051Z,14.50
2019-05-25T20:10:14.741Z,14.53
2019-05-25T20:12:45.652Z,14.50
2019-05-25T20:15:16.345Z,14.36
2019-05-25T20:17:45.473Z,14.32
2019-05-25T20:20:15.228Z,14.35
2019-05-25T20:22:48.680Z,14.36
2019-05-25T20:25:18.275Z,14.38
2019-05-25T20:27:50.742Z,14.25
2019-05-25T20:30:22.033Z,14.19
2019-05-25T20:32:51.278Z,14.25
2019-05-25T20:35:33.062Z,14.21
2019-05-25T20:37:58.971Z,14.08
2019-05-25T20:40:28.138Z,14.14
2019-05-25T20:42:57.277Z,14.07
2019-05-25T20:45:26.489Z,14.20
2019-05-25T20:47:57.650Z,14.21
2019-05-25T20:50:29.664Z,14.12
2019-05-25T20:53:01.221Z,14.03
2019-05-25T20:55:30.414Z,13.91
2019-05-25T20:58:01.201Z,13.90
2019-05-25T21:00:34.233Z,13.76
2019-05-25T21:03:06.991Z,13.87
2019-05-25T21:05:49.768Z,13.90
2019-05-25T21:08:09.027Z,13.89
2019-05-25T21:10:38.196Z,13.89
2019-05-25T21:13:08.029Z,13.67
2019-05-25T21:15:40.770Z,13.73
2019-05-25T21:18:10.294Z,13.77
2019-05-25T21:20:43.857Z,11.70
2019-05-25T21:23:14.647Z,14.16
2019-05-25T21:25:43.777Z,14.08
2019-05-25T21:28:12.911Z,13.95
2019-05-25T21:30:48.208Z,14.01
2019-05-25T21:33:18.359Z,14.45
2019-05-25T21:35:47.555Z,14.36
2019-05-25T21:38:16.725Z,14.21
2019-05-25T21:40:45.866Z,14.28
2019-05-25T21:43:15.152Z,14.05
2019-05-25T21:45:44.362Z,14.19
2019-05-25T21:48:15.030Z,14.13
2019-05-25T21:50:44.191Z,14.61
2019-05-25T21:53:15.537Z,14.44
2019-05-25T21:55:45.852Z,14.53
2019-05-25T21:58:14.972Z,14.69
2019-05-25T22:00:45.508Z,14.58
2019-05-25T22:03:16.389Z,14.88
2019-05-25T22:05:49.731Z,15.24
2019-05-25T22:08:22.051Z,15.20
2019-05-25T22:10:51.259Z,15.29
2019-05-25T22:13:28.700Z,15.64
2019-05-25T22:15:55.433Z,15.53
2019-05-25T22:18:24.556Z,15.28
2019-05-25T22:20:53.670Z,15.35
2019-05-25T22:23:23.931Z,15.16
2019-05-25T22:25:53.047Z,15.63
2019-05-25T22:28:24.897Z,15.35
2019-05-25T22:30:54.168Z,15.15
2019-05-25T22:33:25.354Z,15.17
2019-05-25T22:35:54.668Z,15.12
2019-05-25T22:38:24.333Z,15.80
2019-05-25T22:40:53.481Z,15.86
2019-05-25T22:43:25.206Z,15.88
2019-05-25T22:45:56.582Z,15.73
2019-05-25T22:48:31.985Z,15.63
2019-05-25T22:51:09.876Z,15.67
2019-05-25T22:53:39.247Z,16.04
2019-05-25T22:56:08.399Z,15.94
2019-05-25T22:58:38.822Z,16.30
2019-05-25T23:01:07.953Z,16.27
2019-05-25T23:03:42.845Z,16.06
2019-05-25T23:06:13.435Z,16.62
2019-05-25T23:08:46.773Z,16.48
2019-05-25T23:11:15.994Z,16.42
2019-05-25T23:13:47.228Z,16.57
2019-05-25T23:16:20.066Z,16.84
2019-05-25T23:18:50.165Z,16.79
2019-05-25T23:21:19.272Z,16.97
2019-05-25T23:23:48.948Z,16.86
2019-05-25T23:26:18.109Z,16.66
2019-05-25T23:28:54.557Z,16.49
2019-05-25T23:31:26.376Z,16.26
2019-05-25T23:33:56.800Z,15.46
2019-05-25T23:36:26.363Z,15.14
2019-05-25T23:38:55.486Z,15.03
2019-05-25T23:41:24.633Z,14.77
2019-05-25T23:43:55.082Z,14.73
2019-05-25T23:46:33.599Z,14.95
2019-05-25T23:49:02.893Z,15.12
2019-05-25T23:51:32.011Z,15.38
2019-05-25T23:54:02.893Z,15.51
2019-05-25T23:56:32.290Z,15.65
2019-05-25T23:59:04.749Z,15.89
